createdAt,value
2023-04-06T00:01:58.810Z,9.63
2023-04-06T00:04:29.260Z,9.80
2023-04-06T00:06:59.679Z,8.63
2023-04-06T00:09:32.702Z,9.32
2023-04-06T00:12:03.081Z,9.13
2023-04-06T00:14:33.451Z,8.10
2023-04-06T00:17:04.392Z,8.40
2023-04-06T00:19:34.764Z,8.77
2023-04-06T00:22:05.774Z,7.60
2023-04-06T00:24:38.856Z,8.77
2023-04-06T00:27:09.264Z,9.02
2023-04-06T00:29:39.945Z,8.93
2023-04-06T00:32:10.411Z,8.95
2023-04-06T00:34:40.810Z,7.72
2023-04-06T00:37:11.380Z,9.15
2023-04-06T00:39:44.324Z,8.80
2023-04-06T00:42:16.733Z,8.27
2023-04-06T00:44:47.307Z,8.65
2023-04-06T00:47:17.952Z,8.48
2023-04-06T00:49:48.276Z,8.43
2023-04-06T00:52:18.796Z,7.95
2023-04-06T00:54:51.886Z,7.95
2023-04-06T00:57:22.375Z,7.63
2023-04-06T00:59:52.710Z,8.05
2023-04-06T01:02:23.099Z,8.55
2023-04-06T01:04:53.463Z,7.38
2023-04-06T01:07:23.881Z,7.90
2023-04-06T01:09:57.574Z,8.10
2023-04-06T01:12:28.260Z,7.95
2023-04-06T01:14:59.120Z,7.88
2023-04-06T01:17:29.940Z,7.53
2023-04-06T01:20:00.321Z,7.28
2023-04-06T01:22:33.329Z,7.50
2023-04-06T01:25:03.927Z,7.15
2023-04-06T01:27:34.336Z,7.63
2023-04-06T01:30:04.729Z,8.18
2023-04-06T01:32:35.183Z,8.02
2023-04-06T01:35:05.983Z,8.25
2023-04-06T01:37:39.091Z,7.50
2023-04-06T01:40:10.479Z,7.65
2023-04-06T01:42:40.861Z,7.55
2023-04-06T01:45:11.844Z,7.95
2023-04-06T01:47:42.587Z,6.80
2023-04-06T01:50:13.504Z,6.88
2023-04-06T01:52:46.518Z,7.07
2023-04-06T01:55:16.901Z,8.25
2023-04-06T01:57:47.260Z,7.82
2023-04-06T02:00:18.424Z,7.15
2023-04-06T02:02:48.823Z,7.80
2023-04-06T02:05:19.236Z,7.20
2023-04-06T02:07:53.073Z,7.32
2023-04-06T02:10:23.426Z,7.07
2023-04-06T02:12:53.786Z,6.97
2023-04-06T02:15:24.154Z,6.80
2023-04-06T02:17:54.577Z,6.88
2023-04-06T02:20:24.991Z,6.65
2023-04-06T02:22:58.020Z,6.50
2023-04-06T02:25:28.369Z,6.43
2023-04-06T02:27:58.860Z,7.63
2023-04-06T02:30:30.231Z,6.57
2023-04-06T02:33:00.666Z,6.53
2023-04-06T02:35:32.689Z,6.32
2023-04-06T02:38:06.019Z,6.88
2023-04-06T02:40:36.405Z,6.13
2023-04-06T02:43:06.896Z,7.25
2023-04-06T02:45:37.214Z,6.53
2023-04-06T02:48:08.173Z,6.75
2023-04-06T02:50:38.604Z,6.47
2023-04-06T02:53:11.607Z,6.78
2023-04-06T02:55:41.975Z,6.43
2023-04-06T02:58:12.606Z,7.18
2023-04-06T03:00:42.992Z,6.47
2023-04-06T03:03:13.459Z,6.88
2023-04-06T03:05:43.889Z,7.35
2023-04-06T03:08:17.232Z,7.28
2023-04-06T03:10:49.756Z,6.82
2023-04-06T03:13:20.185Z,6.93
2023-04-06T03:15:50.611Z,7.20
2023-04-06T03:18:22.700Z,7.28
2023-04-06T03:20:55.091Z,6.28
2023-04-06T03:23:28.156Z,6.50
2023-04-06T03:25:58.488Z,7.15
2023-04-06T03:28:28.931Z,6.38
2023-04-06T03:30:59.356Z,6.75
2023-04-06T03:33:31.101Z,6.68
2023-04-06T03:36:01.630Z,7.28
2023-04-06T03:38:34.630Z,6.28
2023-04-06T03:41:04.986Z,8.75
2023-04-06T03:43:35.650Z,7.20
2023-04-06T03:46:06.036Z,7.13
2023-04-06T03:48:36.453Z,7.25
2023-04-06T03:51:06.813Z,6.45
2023-04-06T03:53:40.654Z,6.75
2023-04-06T03:56:11.344Z,6.70
2023-04-06T03:58:41.734Z,6.78
2023-04-06T04:01:12.087Z,7.05
2023-04-06T04:03:45.391Z,6.53
2023-04-06T04:06:15.847Z,7.07
2023-04-06T04:08:48.825Z,5.90
2023-04-06T04:11:19.493Z,6.22
2023-04-06T04:13:49.867Z,7.25
2023-04-06T04:16:20.227Z,6.50
2023-04-06T04:18:51.035Z,6.70
2023-04-06T04:21:21.365Z,6.70
2023-04-06T04:23:54.615Z,5.90
2023-04-06T04:26:24.994Z,7.10
2023-04-06T04:28:55.588Z,6.68
2023-04-06T04:31:26.196Z,6.15
2023-04-06T04:33:56.636Z,6.95
2023-04-06T04:36:27.601Z,6.15
2023-04-06T04:39:02.421Z,6.88
2023-04-06T04:41:32.781Z,6.50
2023-04-06T04:44:03.233Z,6.68
2023-04-06T04:46:33.534Z,7.07
2023-04-06T04:49:03.936Z,6.55
2023-04-06T04:51:34.996Z,7.82
2023-04-06T04:54:08.264Z,6.70
2023-04-06T04:56:38.658Z,7.60
2023-04-06T04:59:09.508Z,7.68
2023-04-06T05:01:53.700Z,8.25
2023-04-06T05:04:25.040Z,8.40
2023-04-06T05:06:55.537Z,7.75
2023-04-06T05:09:28.963Z,7.30
2023-04-06T05:11:59.342Z,7.57
2023-04-06T05:14:29.810Z,8.20
2023-04-06T05:17:00.193Z,8.35
2023-04-06T05:19:30.556Z,8.52
2023-04-06T05:22:00.928Z,8.02
2023-04-06T05:24:34.052Z,8.93
2023-04-06T05:27:04.376Z,7.97
2023-04-06T05:29:35.003Z,6.28
2023-04-06T05:32:05.684Z,8.32
2023-04-06T05:34:36.438Z,8.65
2023-04-06T05:37:06.782Z,7.60
2023-04-06T05:39:39.773Z,7.57
2023-04-06T05:42:10.387Z,8.35
2023-04-06T05:44:42.056Z,8.80
2023-04-06T05:47:12.356Z,8.55
2023-04-06T05:49:42.814Z,7.32
2023-04-06T05:52:13.390Z,8.55
2023-04-06T05:54:46.350Z,8.73
2023-04-06T05:57:17.654Z,10.35
2023-04-06T05:59:48.051Z,9.27
2023-04-06T06:02:18.463Z,9.07
2023-04-06T06:04:48.945Z,9.88
2023-04-06T06:07:19.567Z,9.35
2023-04-06T06:09:52.544Z,9.80
2023-04-06T06:12:22.853Z,8.52
2023-04-06T06:14:53.204Z,8.13
2023-04-06T06:17:23.650Z,8.95
2023-04-06T06:19:54.135Z,9.23
2023-04-06T06:22:24.498Z,8.23
2023-04-06T06:24:57.574Z,10.68
2023-04-06T06:27:27.975Z,9.98
2023-04-06T06:29:58.366Z,7.25
2023-04-06T06:32:28.766Z,9.73
2023-04-06T06:34:59.180Z,10.82
2023-04-06T06:37:31.110Z,10.93
2023-04-06T06:40:04.358Z,11.52
2023-04-06T06:42:34.737Z,10.45
2023-04-06T06:45:05.163Z,8.50
2023-04-06T06:47:35.623Z,9.88
2023-04-06T06:50:06.258Z,6.57
2023-04-06T06:52:36.647Z,9.35
2023-04-06T06:55:10.157Z,9.57
2023-04-06T06:57:40.520Z,10.23
2023-04-06T07:00:13.559Z,9.73
2023-04-06T07:02:44.149Z,9.98
2023-04-06T07:05:26.837Z,7.95
2023-04-06T07:07:58.296Z,7.55
2023-04-06T07:10:31.593Z,8.00
2023-04-06T07:13:02.094Z,9.55
2023-04-06T07:15:32.540Z,7.32
2023-04-06T07:18:02.946Z,7.28
2023-04-06T07:20:33.439Z,9.00
2023-04-06T07:23:03.940Z,9.68
2023-04-06T07:25:37.067Z,7.10
2023-04-06T07:28:07.612Z,7.40
2023-04-06T07:30:38.054Z,8.45
2023-04-06T07:33:08.472Z,8.57
2023-04-06T07:35:39.186Z,9.23
2023-04-06T07:38:09.685Z,8.10
2023-04-06T07:40:42.895Z,8.15
2023-04-06T07:43:13.317Z,6.63
2023-04-06T07:45:43.876Z,6.25
2023-04-06T07:48:14.304Z,6.40
2023-04-06T07:50:44.793Z,5.10
2023-04-06T07:53:15.164Z,5.68
2023-04-06T07:55:51.480Z,5.78
2023-04-06T07:58:21.998Z,4.78
2023-04-06T08:00:53.052Z,4.82
2023-04-06T08:03:26.863Z,4.43
2023-04-06T08:05:57.533Z,3.78
2023-04-06T08:08:27.890Z,4.18
2023-04-06T08:11:02.306Z,4.72
2023-04-06T08:13:32.841Z,4.68
2023-04-06T08:16:04.114Z,4.05
2023-04-06T08:21:04.568Z,4.40
2023-04-06T08:23:35.315Z,5.07
2023-04-06T08:26:08.386Z,5.40
2023-04-06T08:28:38.721Z,5.55
2023-04-06T08:31:09.681Z,4.30
2023-04-06T08:33:40.487Z,4.38
2023-04-06T08:36:14.378Z,4.57
2023-04-06T08:38:45.232Z,4.10
2023-04-06T08:41:18.958Z,3.88
2023-04-06T08:43:51.806Z,5.10
2023-04-06T08:46:22.835Z,3.22
2023-04-06T08:48:54.599Z,4.93
2023-04-06T08:51:26.547Z,4.72
2023-04-06T08:53:58.430Z,3.75
2023-04-06T08:56:32.791Z,5.32
2023-04-06T08:59:03.815Z,5.15
2023-04-06T09:01:34.845Z,4.32
2023-04-06T09:04:08.807Z,4.70
2023-04-06T09:06:41.869Z,4.00
2023-04-06T09:09:14.785Z,4.07
2023-04-06T09:11:52.328Z,4.60
2023-04-06T09:14:37.550Z,4.80
2023-04-06T09:17:08.965Z,2.65
2023-04-06T09:19:49.565Z,4.95
2023-04-06T09:22:20.019Z,3.53
2023-04-06T09:24:51.377Z,3.95
2023-04-06T09:29:54.399Z,3.50
2023-04-06T09:32:24.841Z,3.95
2023-04-06T09:34:55.261Z,2.50
2023-04-06T09:37:25.648Z,2.47
2023-04-06T09:40:06.654Z,3.42
2023-04-06T09:42:37.079Z,5.07
2023-04-06T09:45:10.689Z,4.60
2023-04-06T09:47:41.828Z,2.38
2023-04-06T09:50:13.890Z,3.00
2023-04-06T09:52:46.190Z,3.72
2023-04-06T09:55:17.115Z,3.22
2023-04-06T09:57:50.465Z,3.38
2023-04-06T10:00:26.623Z,2.75
2023-04-06T10:03:01.181Z,3.03
2023-04-06T10:05:36.584Z,2.70
2023-04-06T10:08:10.815Z,3.22
2023-04-06T10:10:41.774Z,3.53
2023-04-06T10:13:12.534Z,4.10
2023-04-06T10:15:46.593Z,5.82
2023-04-06T10:18:17.319Z,4.57
2023-04-06T10:20:51.820Z,2.00
2023-04-06T10:23:25.332Z,3.60
2023-04-06T10:25:58.665Z,3.53
2023-04-06T10:28:29.545Z,3.50
2023-04-06T10:31:06.668Z,3.92
2023-04-06T10:33:37.246Z,5.18
2023-04-06T10:36:17.446Z,3.28
2023-04-06T10:38:47.869Z,3.35
2023-04-06T10:41:21.932Z,4.95
2023-04-06T10:43:59.515Z,3.72
2023-04-06T10:46:33.450Z,4.35
2023-04-06T10:49:14.998Z,5.50
2023-04-06T10:51:45.459Z,5.15
2023-04-06T10:54:16.598Z,5.75
2023-04-06T10:56:46.939Z,6.10
2023-04-06T10:59:17.357Z,5.75
2023-04-06T11:01:51.823Z,5.60
2023-04-06T11:04:22.963Z,4.38
2023-04-06T11:06:55.134Z,3.08
2023-04-06T11:09:29.911Z,5.43
2023-04-06T11:12:00.427Z,6.45
2023-04-06T11:14:30.974Z,4.93
2023-04-06T11:17:03.978Z,3.58
2023-04-06T11:19:36.479Z,6.03
2023-04-06T11:22:11.995Z,6.25
2023-04-06T11:24:42.356Z,5.65
2023-04-06T11:27:12.776Z,5.28
2023-04-06T11:29:43.216Z,5.97
2023-04-06T11:32:16.472Z,3.85
2023-04-06T11:34:46.865Z,5.80
2023-04-06T11:37:17.226Z,4.85
2023-04-06T11:39:51.848Z,6.32
2023-04-06T11:42:29.299Z,5.32
2023-04-06T11:45:00.225Z,6.13
2023-04-06T11:47:37.817Z,6.57
2023-04-06T11:50:12.189Z,6.57
2023-04-06T11:52:43.138Z,5.25
2023-04-06T11:55:17.577Z,4.95
2023-04-06T11:57:48.280Z,5.93
2023-04-06T12:00:19.340Z,6.63
2023-04-06T12:02:53.309Z,7.28
2023-04-06T12:05:24.358Z,6.35
2023-04-06T12:07:54.718Z,7.85
2023-04-06T12:10:25.155Z,4.43
2023-04-06T12:12:55.488Z,6.60
2023-04-06T12:15:26.251Z,6.45
2023-04-06T12:17:59.565Z,6.00
2023-04-06T12:20:29.948Z,7.45
2023-04-06T12:23:00.342Z,6.22
2023-04-06T12:25:31.235Z,8.15
2023-04-06T12:28:02.949Z,7.35
2023-04-06T12:30:33.416Z,7.60
2023-04-06T12:33:06.411Z,7.43
2023-04-06T12:35:38.689Z,5.93
2023-04-06T12:38:09.017Z,6.93
2023-04-06T12:40:42.259Z,6.93
2023-04-06T12:43:14.232Z,6.00
2023-04-06T12:45:44.678Z,7.63
2023-04-06T12:48:17.627Z,6.70
2023-04-06T12:50:48.012Z,5.38
2023-04-06T12:53:18.369Z,6.25
2023-04-06T12:55:48.860Z,6.93
2023-04-06T12:58:19.233Z,5.97
2023-04-06T13:00:49.804Z,6.20
2023-04-06T13:03:23.605Z,7.95
2023-04-06T13:05:54.810Z,7.30
2023-04-06T13:08:25.142Z,6.22
2023-04-06T13:10:56.441Z,3.92
2023-04-06T13:15:57.909Z,4.53
2023-04-06T13:18:30.901Z,3.15
2023-04-06T13:21:01.486Z,6.20
2023-04-06T13:23:31.855Z,6.28
2023-04-06T13:26:04.436Z,5.38
2023-04-06T13:28:35.391Z,4.85
2023-04-06T13:31:06.524Z,7.38
2023-04-06T13:33:39.702Z,5.55
2023-04-06T13:36:11.122Z,5.97
2023-04-06T13:38:42.567Z,3.80
2023-04-06T13:41:13.185Z,4.43
2023-04-06T13:43:43.539Z,2.95
2023-04-06T13:46:13.979Z,5.40
2023-04-06T13:48:48.189Z,4.63
2023-04-06T13:51:18.968Z,7.40
2023-04-06T13:53:51.474Z,7.22
2023-04-06T13:56:21.848Z,5.50
2023-04-06T13:58:52.221Z,5.57
2023-04-06T14:01:22.707Z,5.88
2023-04-06T14:03:55.868Z,6.20
2023-04-06T14:06:31.792Z,5.97
2023-04-06T14:09:02.672Z,6.60
2023-04-06T14:11:33.536Z,5.80
2023-04-06T14:14:04.165Z,7.55
2023-04-06T14:16:34.911Z,6.95
2023-04-06T14:19:07.838Z,8.40
2023-04-06T14:21:38.900Z,7.63
2023-04-06T14:24:09.560Z,5.63
2023-04-06T14:26:40.205Z,7.93
2023-04-06T14:29:10.491Z,4.95
2023-04-06T14:31:41.405Z,8.18
2023-04-06T14:34:14.283Z,6.72
2023-04-06T14:36:44.672Z,6.60
2023-04-06T14:39:15.102Z,5.75
2023-04-06T14:41:46.372Z,4.88
2023-04-06T14:46:47.265Z,7.95
2023-04-06T14:49:20.290Z,7.70
2023-04-06T14:51:50.663Z,7.90
2023-04-06T14:54:21.078Z,8.82
2023-04-06T14:56:54.158Z,5.60
2023-04-06T14:59:24.458Z,9.10
2023-04-06T15:01:54.997Z,7.32
2023-04-06T15:04:28.069Z,4.93
2023-04-06T15:06:58.464Z,6.18
2023-04-06T15:09:28.804Z,9.00
2023-04-06T15:12:01.830Z,8.38
2023-04-06T15:14:32.146Z,7.00
2023-04-06T15:17:02.599Z,9.15
2023-04-06T15:19:35.644Z,8.70
2023-04-06T15:22:06.023Z,6.15
2023-04-06T15:24:36.460Z,9.15
2023-04-06T15:27:06.842Z,8.70
2023-04-06T15:29:37.451Z,9.25
2023-04-06T15:32:07.863Z,6.20
2023-04-06T15:34:41.051Z,7.38
2023-04-06T15:37:12.030Z,8.60
2023-04-06T15:39:42.373Z,7.95
2023-04-06T15:42:12.724Z,9.05
2023-04-06T15:44:43.042Z,8.07
2023-04-06T15:47:13.484Z,10.20
2023-04-06T15:49:46.431Z,9.77
2023-04-06T15:52:16.895Z,10.70
2023-04-06T15:54:47.828Z,5.93
2023-04-06T15:57:18.193Z,10.45
2023-04-06T15:59:48.481Z,10.35
2023-04-06T16:02:20.498Z,11.13
2023-04-06T16:04:53.491Z,6.10
2023-04-06T16:07:24.041Z,8.05
2023-04-06T16:09:54.522Z,8.57
2023-04-06T16:14:55.296Z,9.05
2023-04-06T16:17:26.145Z,12.30
2023-04-06T16:19:59.080Z,13.05
2023-04-06T16:22:29.432Z,12.10
2023-04-06T16:24:59.758Z,11.95
2023-04-06T16:27:30.192Z,10.45
2023-04-06T16:32:52.055Z,11.07
2023-04-06T16:35:26.381Z,9.95
2023-04-06T16:37:56.795Z,12.20
2023-04-06T16:40:27.334Z,8.50
2023-04-06T16:42:58.645Z,10.20
2023-04-06T16:45:28.982Z,10.82
2023-04-06T16:47:59.474Z,10.63
2023-04-06T16:50:32.485Z,11.55
2023-04-06T16:53:02.870Z,12.80
2023-04-06T16:55:33.208Z,13.57
2023-04-06T16:58:03.576Z,11.77
2023-04-06T17:00:33.999Z,14.48
2023-04-06T17:03:04.558Z,13.00
2023-04-06T17:05:38.191Z,10.23
2023-04-06T17:08:08.763Z,8.90
2023-04-06T17:10:46.448Z,9.77
2023-04-06T17:13:22.077Z,11.07
2023-04-06T17:15:52.381Z,8.68
2023-04-06T17:18:22.757Z,11.18
2023-04-06T17:20:55.796Z,11.00
2023-04-06T17:23:26.425Z,11.30
2023-04-06T17:25:57.938Z,11.88
2023-04-06T17:28:28.453Z,12.48
2023-04-06T17:30:58.883Z,12.65
2023-04-06T17:33:29.827Z,10.93
2023-04-06T17:36:02.917Z,13.63
2023-04-06T17:38:33.375Z,12.10
2023-04-06T17:41:07.752Z,11.55
2023-04-06T17:43:38.243Z,12.88
2023-04-06T17:46:09.056Z,8.40
2023-04-06T17:48:39.518Z,7.82
2023-04-06T17:51:12.470Z,10.07
2023-04-06T17:53:42.876Z,7.40
2023-04-06T17:56:13.255Z,8.82
2023-04-06T17:58:44.229Z,8.85
2023-04-06T18:01:14.927Z,10.00
2023-04-06T18:03:45.739Z,9.55
2023-04-06T18:06:19.323Z,10.15
2023-04-06T18:08:49.655Z,9.63
2023-04-06T18:11:21.969Z,9.98
2023-04-06T18:13:53.041Z,8.52
2023-04-06T18:18:54.008Z,7.88
2023-04-06T18:21:27.448Z,6.90
2023-04-06T18:24:00.004Z,6.47
2023-04-06T18:26:32.944Z,6.68
2023-04-06T18:29:03.340Z,7.40
2023-04-06T18:34:05.264Z,6.45
2023-04-06T18:36:38.187Z,9.45
2023-04-06T18:39:08.656Z,6.53
2023-04-06T18:41:39.447Z,6.70
2023-04-06T18:44:09.914Z,7.38
2023-04-06T18:46:40.304Z,7.22
2023-04-06T18:49:10.820Z,7.50
2023-04-06T18:51:43.875Z,8.32
2023-04-06T18:54:14.266Z,7.00
2023-04-06T18:56:44.713Z,7.97
2023-04-06T18:59:17.583Z,6.95
2023-04-06T19:01:51.308Z,6.78
2023-04-06T19:04:21.883Z,6.13
2023-04-06T19:06:55.942Z,7.53
2023-04-06T19:09:26.884Z,7.25
2023-04-06T19:11:57.758Z,7.05
2023-04-06T19:14:28.143Z,6.75
2023-04-06T19:16:58.872Z,6.78
2023-04-06T19:19:29.422Z,6.93
2023-04-06T19:22:02.582Z,7.30
2023-04-06T19:24:32.928Z,8.27
2023-04-06T19:27:03.418Z,7.38
2023-04-06T19:29:33.761Z,8.10
2023-04-06T19:32:04.131Z,7.32
2023-04-06T19:34:34.607Z,7.32
2023-04-06T19:37:07.708Z,7.15
2023-04-06T19:39:40.325Z,7.43
2023-04-06T19:42:10.660Z,7.65
2023-04-06T19:44:41.028Z,7.80
2023-04-06T19:47:12.052Z,7.10
2023-04-06T19:49:42.385Z,7.45
2023-04-06T19:52:15.684Z,7.30
2023-04-06T19:54:47.161Z,7.40
2023-04-06T19:57:17.642Z,7.47
2023-04-06T19:59:47.965Z,8.05
2023-04-06T20:02:19.001Z,8.00
2023-04-06T20:07:23.904Z,7.80
2023-04-06T20:09:54.219Z,7.88
2023-04-06T20:12:24.576Z,7.95
2023-04-06T20:14:55.079Z,9.52
2023-04-06T20:17:25.546Z,7.05
2023-04-06T20:19:55.959Z,7.70
2023-04-06T20:22:30.141Z,8.15
2023-04-06T20:25:00.596Z,6.97
2023-04-06T20:27:31.032Z,7.45
2023-04-06T20:30:01.734Z,7.13
2023-04-06T20:32:33.461Z,7.75
2023-04-06T20:35:04.255Z,6.82
2023-04-06T20:37:38.080Z,7.07
2023-04-06T20:40:09.261Z,6.68
2023-04-06T20:45:10.873Z,6.40
2023-04-06T20:47:41.251Z,7.32
2023-04-06T20:50:12.378Z,7.25
2023-04-06T20:55:15.662Z,6.43
2023-04-06T20:57:46.659Z,7.30
2023-04-06T21:00:17.568Z,6.45
2023-04-06T21:02:48.093Z,6.45
2023-04-06T21:05:20.893Z,6.43
2023-04-06T21:07:51.234Z,5.53
2023-04-06T21:10:24.688Z,5.97
2023-04-06T21:12:54.978Z,5.47
2023-04-06T21:15:26.275Z,6.75
2023-04-06T21:17:56.663Z,6.97
2023-04-06T21:20:27.034Z,8.25
2023-04-06T21:22:57.319Z,7.97
2023-04-06T21:25:30.263Z,8.13
2023-04-06T21:28:01.199Z,8.80
2023-04-06T21:30:36.968Z,9.40
2023-04-06T21:33:07.791Z,7.72
2023-04-06T21:35:41.680Z,7.20
2023-04-06T21:38:12.242Z,6.85
2023-04-06T21:40:45.192Z,6.38
2023-04-06T21:43:15.546Z,5.47
2023-04-06T21:45:52.166Z,5.70
2023-04-06T21:48:22.435Z,6.07
2023-04-06T21:50:52.771Z,5.65
2023-04-06T21:53:23.068Z,5.70
2023-04-06T21:55:56.204Z,5.68
2023-04-06T21:58:26.528Z,7.38
2023-04-06T22:00:56.865Z,6.28
2023-04-06T22:03:27.326Z,7.53
2023-04-06T22:05:58.058Z,7.80
2023-04-06T22:08:33.658Z,9.23
2023-04-06T22:11:11.515Z,8.60
2023-04-06T22:13:42.593Z,7.00
2023-04-06T22:16:12.977Z,7.40
2023-04-06T22:18:43.249Z,7.50
2023-04-06T22:21:13.697Z,7.78
2023-04-06T22:23:44.918Z,6.97
2023-04-06T22:28:47.893Z,6.72
2023-04-06T22:31:18.261Z,6.05
2023-04-06T22:33:48.561Z,7.28
2023-04-06T22:36:18.971Z,7.38
2023-04-06T22:38:51.049Z,9.57
2023-04-06T22:41:21.408Z,8.80
2023-04-06T22:43:54.360Z,8.73
2023-04-06T22:46:24.820Z,8.18
2023-04-06T22:48:55.108Z,7.68
2023-04-06T22:51:25.568Z,6.78
2023-04-06T22:53:55.877Z,7.43
2023-04-06T22:56:26.353Z,7.15
2023-04-06T22:58:59.356Z,7.43
2023-04-06T23:01:29.895Z,7.80
2023-04-06T23:04:00.546Z,7.18
2023-04-06T23:06:31.030Z,6.97
2023-04-06T23:09:01.504Z,7.90
2023-04-06T23:11:32.081Z,7.05
2023-04-06T23:14:05.021Z,6.25
2023-04-06T23:16:35.421Z,7.22
2023-04-06T23:19:05.972Z,7.20
2023-04-06T23:21:36.434Z,6.85
2023-04-06T23:24:06.716Z,7.25
2023-04-06T23:26:37.191Z,7.80
2023-04-06T23:29:10.174Z,7.78
2023-04-06T23:31:40.600Z,6.78
2023-04-06T23:34:10.972Z,6.35
2023-04-06T23:36:41.305Z,6.75
2023-04-06T23:39:11.677Z,6.13
2023-04-06T23:41:43.324Z,7.00
2023-04-06T23:44:16.495Z,6.30
2023-04-06T23:46:46.942Z,6.85
2023-04-06T23:49:17.315Z,6.43
2023-04-06T23:51:47.631Z,6.18
2023-04-06T23:54:18.033Z,6.47
2023-04-06T23:56:48.387Z,6.95
2023-04-06T23:59:23.917Z,6.38
